Time;durP1;ratioP1;P1;durP2;ratioP2;P2;SDS_P1;SDS_P2;PMS_P1;PMS_P2;Temp;Humidity;BMP_temperature;BMP_pressure;BME280_temperature;BME280_humidity;BME280_pressure;Samples;Min_cycle;Max_cycle;Signal;HPM_P1;HPM_P2
2023/05/06 00:02:14;;;;;;;2.60;1.38;;;;;;;15.59;63.78;101053.94;5191208;28;20030;-83
2023/05/06 00:05:06;;;;;;;3.20;2.55;;;;;;;15.56;63.59;101049.63;5196834;28;20040;-83
2023/05/06 00:07:56;;;;;;;1.52;1.42;;;;;;;15.56;63.52;101038.22;5205679;28;20794;-83
2023/05/06 00:10:47;;;;;;;2.13;1.65;;;;;;;15.53;63.52;101033.94;5208182;28;20033;-82
2023/05/06 00:13:38;;;;;;;4.30;3.20;;;;;;;15.52;63.54;101048.06;5195363;28;20038;-82
2023/05/06 00:16:29;;;;;;;3.83;2.95;;;;;;;15.53;63.69;101039.22;5192526;28;20053;-83
2023/05/06 00:19:20;;;;;;;2.63;2.33;;;;;;;15.50;63.53;101038.44;5204928;28;20061;-83
2023/05/06 00:22:11;;;;;;;1.50;1.40;;;;;;;15.44;63.69;101039.59;5193566;28;20052;-83
2023/05/06 00:25:03;;;;;;;1.95;1.85;;;;;;;15.42;64.03;101050.22;5197251;28;20025;-83
2023/05/06 00:27:53;;;;;;;2.53;2.33;;;;;;;15.33;66.22;101057.69;5196570;28;20042;-83
2023/05/06 00:30:44;;;;;;;6.72;2.08;;;;;;;15.34;63.85;101057.63;5197301;28;20797;-82
2023/05/06 00:33:35;;;;;;;4.03;2.08;;;;;;;15.31;64.08;101041.91;5194135;28;20046;-82
2023/05/06 00:36:26;;;;;;;1.25;1.15;;;;;;;15.25;64.28;101043.00;5187543;28;20033;-82
2023/05/06 00:39:16;;;;;;;1.80;1.70;;;;;;;15.28;64.14;101044.66;5191972;28;20036;-82
2023/05/06 00:42:07;;;;;;;2.22;2.03;;;;;;;15.27;64.15;101037.66;5194296;28;20117;-83
2023/05/06 00:44:58;;;;;;;3.08;1.83;;;;;;;15.22;64.14;101035.19;5192775;28;20116;-81
2023/05/06 00:47:49;;;;;;;0.82;0.82;;;;;;;15.20;63.85;101034.44;5198971;28;20097;-83
2023/05/06 00:50:40;;;;;;;2.05;1.90;;;;;;;15.18;63.98;101038.91;5188361;28;20113;-83
2023/05/06 00:53:31;;;;;;;2.20;2.10;;;;;;;15.07;63.69;101039.34;5185291;28;20068;-82
2023/05/06 00:56:22;;;;;;;2.80;2.42;;;;;;;15.09;63.74;101042.78;5208507;28;20644;-83
2023/05/06 00:59:14;;;;;;;2.00;1.85;;;;;;;15.09;63.62;101028.72;5199231;28;20040;-82
2023/05/06 01:02:05;;;;;;;2.83;2.15;;;;;;;15.03;63.62;101035.09;5195345;28;20474;-83
2023/05/06 01:04:55;;;;;;;1.70;1.58;;;;;;;15.04;64.05;101028.91;5196099;28;21634;-82
2023/05/06 01:07:53;;;;;;;1.95;1.77;;;;;;;15.05;63.81;101037.66;5196594;28;20052;-82
2023/05/06 01:10:51;;;;;;;4.43;3.22;;;;;;;14.93;63.60;101031.09;5190657;28;20480;-82
2023/05/06 01:13:45;;;;;;;2.92;2.00;;;;;;;14.89;63.63;101033.00;5199865;28;20522;-83
2023/05/06 01:16:38;;;;;;;;;;;;;;;14.90;63.53;101033.88;5193051;28;20124;-83
2023/05/06 01:19:52;;;;;;;2.60;1.75;;;;;;;14.88;63.61;101035.72;5192018;28;20034;-82
2023/05/06 01:22:43;;;;;;;2.40;2.03;;;;;;;14.86;63.62;101037.56;5184327;28;20076;-84
2023/05/06 01:25:34;;;;;;;2.67;1.92;;;;;;;14.83;63.77;101037.69;5208637;28;20025;-82
2023/05/06 01:28:24;;;;;;;1.67;1.05;;;;;;;14.82;63.42;101041.25;5202643;28;20044;-82
2023/05/06 01:31:28;;;;;;;4.18;2.63;;;;;;;14.75;63.67;101030.91;5204432;28;20037;-82
2023/05/06 01:34:57;;;;;;;1.73;1.63;;;;;;;14.79;63.62;101043.09;5204829;28;20032;-83
2023/05/06 01:38:03;;;;;;;3.15;2.13;;;;;;;14.76;63.50;101037.91;5203061;28;20071;-83
2023/05/06 01:40:56;;;;;;;5.78;2.10;;;;;;;14.69;63.23;101032.97;5209680;28;20029;-83
2023/05/06 01:43:49;;;;;;;2.63;2.42;;;;;;;14.69;63.45;101038.25;5210772;28;20065;-82
2023/05/06 01:46:41;;;;;;;1.98;1.63;;;;;;;14.65;63.44;101032.19;5197361;28;20022;-83
2023/05/06 01:49:31;;;;;;;3.20;2.10;;;;;;;14.60;62.99;101036.78;5210426;28;20037;-83
2023/05/06 01:52:22;;;;;;;2.70;2.50;;;;;;;14.54;63.14;101042.28;5199508;28;20035;-83
2023/05/06 01:55:13;;;;;;;2.05;1.35;;;;;;;14.44;63.51;101039.16;5206535;28;20037;-82
2023/05/06 01:58:04;;;;;;;5.65;1.67;;;;;;;14.37;63.32;101041.16;5191171;28;20048;-82
2023/05/06 02:00:55;;;;;;;3.92;2.20;;;;;;;14.32;63.15;101043.97;5193652;28;20274;-83
2023/05/06 02:03:45;;;;;;;1.33;1.33;;;;;;;14.41;64.02;101037.50;5183558;28;20050;-82
2023/05/06 02:06:36;;;;;;;2.13;1.42;;;;;;;14.42;63.37;101036.56;5192130;28;20025;-83
2023/05/06 02:09:27;;;;;;;2.22;2.00;;;;;;;14.35;63.52;101042.16;5201393;28;20041;-81
2023/05/06 02:12:18;;;;;;;4.45;1.90;;;;;;;14.38;63.57;101036.75;5214270;28;20511;-82
2023/05/06 02:15:09;;;;;;;2.53;2.33;;;;;;;14.33;63.50;101039.56;5195589;28;20192;-82
2023/05/06 02:18:00;;;;;;;1.20;1.10;;;;;;;14.32;63.65;101037.84;5192664;28;20064;-82
2023/05/06 02:20:51;;;;;;;2.55;2.35;;;;;;;14.28;63.58;101049.44;5208181;28;20542;-83
2023/05/06 02:23:41;;;;;;;5.05;2.25;;;;;;;14.26;63.80;101043.34;5191630;28;20370;-82
2023/05/06 02:26:32;;;;;;;3.15;2.15;;;;;;;14.20;63.53;101040.94;5198559;28;20049;-82
2023/05/06 02:29:23;;;;;;;3.88;3.35;;;;;;;14.19;63.31;101048.00;5207459;28;20037;-82
2023/05/06 02:32:14;;;;;;;2.17;1.75;;;;;;;14.09;63.24;101047.47;5195920;28;20017;-83
2023/05/06 02:35:05;;;;;;;1.05;0.95;;;;;;;13.92;63.75;101036.69;5205300;28;20101;-82
2023/05/06 02:37:56;;;;;;;2.35;1.98;;;;;;;13.97;63.50;101034.72;5198457;28;20063;-82
2023/05/06 02:40:46;;;;;;;3.45;2.60;;;;;;;13.95;63.24;101032.16;5194830;28;20025;-82
2023/05/06 02:43:37;;;;;;;1.60;0.93;;;;;;;13.96;63.46;101023.34;5197711;28;20076;-82
2023/05/06 02:46:28;;;;;;;1.98;1.75;;;;;;;13.95;63.50;101034.78;5200076;28;20021;-83
2023/05/06 02:49:19;;;;;;;1.48;1.38;;;;;;;13.92;63.37;101032.25;5197166;28;20038;-82
2023/05/06 02:52:09;;;;;;;2.15;1.77;;;;;;;13.92;63.89;101034.91;5223907;28;20022;-83
2023/05/06 02:55:01;;;;;;;1.83;1.73;;;;;;;13.84;63.78;101035.16;5212661;28;20041;-83
2023/05/06 02:57:52;;;;;;;2.13;1.88;;;;;;;13.80;63.64;101035.34;5219673;28;20057;-83
2023/05/06 03:00:42;;;;;;;2.65;2.45;;;;;;;13.72;64.03;101032.97;5199446;28;20036;-82
2023/05/06 03:03:33;;;;;;;1.77;1.67;;;;;;;13.73;63.89;101029.41;5210527;28;20105;-82
2023/05/06 03:06:24;;;;;;;4.47;3.05;;;;;;;13.76;63.97;101033.72;5198927;28;20022;-82
2023/05/06 03:09:14;;;;;;;3.78;3.45;;;;;;;13.77;63.63;101030.16;5201484;28;20581;-82
2023/05/06 03:12:05;;;;;;;1.40;1.30;;;;;;;13.76;64.26;101029.28;5200464;28;20030;-82
2023/05/06 03:14:56;;;;;;;2.30;2.13;;;;;;;13.68;63.83;101026.94;5201678;28;20518;-82
2023/05/06 03:17:47;;;;;;;2.58;1.90;;;;;;;13.63;63.64;101028.00;5192865;28;20116;-82
2023/05/06 03:20:37;;;;;;;1.80;1.65;;;;;;;13.64;63.78;101025.31;5196930;28;20093;-82
2023/05/06 03:23:28;;;;;;;7.32;2.42;;;;;;;13.64;63.81;101027.94;5192816;28;20121;-82
2023/05/06 03:26:20;;;;;;;1.83;1.73;;;;;;;13.63;63.98;101028.91;5194292;28;20501;-82
2023/05/06 03:29:10;;;;;;;1.70;1.60;;;;;;;13.56;63.70;101029.16;5206353;28;20045;-83
2023/05/06 03:32:02;;;;;;;2.03;1.75;;;;;;;13.47;64.17;101023.28;5193728;28;20132;-82
2023/05/06 03:34:53;;;;;;;1.80;1.70;;;;;;;13.55;64.31;101020.38;5213532;28;20502;-82
2023/05/06 03:37:44;;;;;;;4.03;2.30;;;;;;;13.54;64.47;101026.56;5195908;28;20044;-83
2023/05/06 03:40:35;;;;;;;2.08;1.92;;;;;;;13.46;64.04;101026.81;5195536;28;20560;-82
2023/05/06 03:43:25;;;;;;;1.27;1.25;;;;;;;13.50;64.29;101025.81;5208494;28;20057;-82
2023/05/06 03:46:16;;;;;;;1.63;1.35;;;;;;;13.50;63.96;101020.56;5196727;28;20037;-82
2023/05/06 03:49:07;;;;;;;1.65;1.25;;;;;;;13.49;64.14;101021.47;5198431;28;20049;-82
2023/05/06 03:52:01;;;;;;;2.33;2.13;;;;;;;13.45;64.05;101030.38;5189130;28;20057;-82
2023/05/06 03:54:51;;;;;;;1.90;1.80;;;;;;;13.42;63.81;101025.22;5189698;28;20052;-83
2023/05/06 03:57:42;;;;;;;2.72;2.47;;;;;;;13.42;64.24;101041.03;5187106;28;20052;-82
2023/05/06 04:00:33;;;;;;;2.15;1.95;;;;;;;13.40;63.99;101032.31;5193883;28;20051;-82
2023/05/06 04:03:24;;;;;;;2.42;2.33;;;;;;;13.34;63.72;101032.50;5196526;28;20037;-82
2023/05/06 04:06:14;;;;;;;1.30;1.23;;;;;;;13.37;63.99;101038.53;5202478;28;20030;-82
2023/05/06 04:09:05;;;;;;;2.08;1.98;;;;;;;13.33;63.78;101041.31;5188142;28;20045;-82
2023/05/06 04:11:56;;;;;;;1.30;1.25;;;;;;;13.31;64.21;101043.97;5188813;28;20710;-82
2023/05/06 04:14:47;;;;;;;4.28;3.38;;;;;;;13.31;64.49;101043.97;5197637;28;20070;-82
2023/05/06 04:17:38;;;;;;;1.75;1.25;;;;;;;13.30;64.36;101042.28;5194827;28;20045;-83
2023/05/06 04:20:29;;;;;;;1.52;1.40;;;;;;;13.34;64.39;101048.31;5186055;28;20026;-81
2023/05/06 04:23:20;;;;;;;2.42;1.83;;;;;;;13.29;64.14;101050.22;5187731;28;20046;-83
2023/05/06 04:26:11;;;;;;;1.23;1.17;;;;;;;13.25;64.26;101048.59;5187365;28;20068;-83
2023/05/06 04:29:01;;;;;;;1.25;1.20;;;;;;;13.23;64.19;101049.50;5195215;28;20030;-82
2023/05/06 04:31:52;;;;;;;0.80;0.80;;;;;;;13.25;64.23;101054.72;5186382;28;20112;-82
2023/05/06 04:34:46;;;;;;;1.73;1.63;;;;;;;13.23;64.24;101062.69;5205618;28;20040;-82
2023/05/06 04:37:36;;;;;;;2.53;2.33;;;;;;;13.16;64.04;101061.16;5193669;28;20033;-83
2023/05/06 04:40:27;;;;;;;2.13;1.75;;;;;;;13.14;64.38;101060.34;5196794;28;20075;-83
2023/05/06 04:43:18;;;;;;;0.77;0.77;;;;;;;13.12;64.26;101070.06;5192719;28;20401;-82
2023/05/06 04:46:09;;;;;;;1.83;1.27;;;;;;;13.10;64.36;101071.88;5195022;28;20041;-82
2023/05/06 04:49:00;;;;;;;1.23;1.17;;;;;;;13.09;64.65;101058.78;5192084;28;20030;-83
2023/05/06 04:51:50;;;;;;;1.75;1.65;;;;;;;13.13;64.61;101071.81;5194748;28;20018;-83
2023/05/06 04:54:41;;;;;;;3.53;3.22;;;;;;;13.11;64.31;101067.50;5197544;28;20038;-82
2023/05/06 04:57:32;;;;;;;0.93;0.93;;;;;;;13.09;64.19;101075.47;5195837;28;20568;-83
2023/05/06 05:00:25;;;;;;;1.67;1.58;;;;;;;13.10;64.45;101086.84;5196115;28;20069;-83
2023/05/06 05:03:15;;;;;;;0.45;0.45;;;;;;;13.04;64.55;101083.50;5203468;28;20047;-83
2023/05/06 05:06:06;;;;;;;1.13;1.05;;;;;;;13.01;64.76;101078.31;5204056;28;20040;-83
2023/05/06 05:08:58;;;;;;;0.70;0.70;;;;;;;13.00;64.80;101084.50;5193364;28;20100;-82
2023/05/06 05:11:48;;;;;;;1.35;1.33;;;;;;;13.03;64.79;101081.78;5190137;28;20021;-82
2023/05/06 05:14:39;;;;;;;2.05;1.77;;;;;;;13.01;64.75;101085.38;5191667;28;20029;-83
2023/05/06 05:17:30;;;;;;;0.70;0.70;;;;;;;13.04;65.12;101085.25;5204820;28;20040;-82
2023/05/06 05:20:21;;;;;;;1.23;1.13;;;;;;;13.02;64.95;101076.53;5200252;28;20551;-82
2023/05/06 05:23:12;;;;;;;1.33;1.23;;;;;;;13.01;65.09;101093.28;5188983;28;20097;-81
2023/05/06 05:26:02;;;;;;;1.45;1.35;;;;;;;13.01;65.52;101088.00;5190613;28;20377;-82
2023/05/06 05:28:53;;;;;;;3.88;1.77;;;;;;;13.02;65.06;101094.97;5186514;28;20072;-82
2023/05/06 05:31:44;;;;;;;2.47;2.28;;;;;;;12.99;64.91;101089.81;5185728;28;20025;-81
2023/05/06 05:34:35;;;;;;;4.78;2.13;;;;;;;12.97;65.20;101092.50;5185519;28;20029;-81
2023/05/06 05:37:25;;;;;;;1.33;1.23;;;;;;;12.97;64.84;101097.78;5188093;28;20032;-82
2023/05/06 05:40:16;;;;;;;2.22;1.60;;;;;;;12.98;65.30;101091.56;5187866;28;20102;-82
2023/05/06 05:43:07;;;;;;;1.92;1.00;;;;;;;12.96;66.02;101095.19;5197275;28;20042;-81
2023/05/06 05:45:58;;;;;;;2.22;1.77;;;;;;;12.97;66.08;101099.53;5188529;28;20025;-82
2023/05/06 05:48:48;;;;;;;1.67;1.13;;;;;;;12.97;68.18;101102.16;5188361;28;20061;-83
2023/05/06 05:51:39;;;;;;;2.85;1.75;;;;;;;12.99;67.04;101108.25;5192893;28;20025;-81
2023/05/06 05:54:30;;;;;;;0.80;0.80;;;;;;;13.01;67.25;101104.66;5198325;28;20056;-82
2023/05/06 05:57:21;;;;;;;2.08;0.88;;;;;;;13.02;67.52;101098.50;5189732;28;20021;-81
2023/05/06 06:00:12;;;;;;;0.70;0.70;;;;;;;13.10;66.61;101105.28;5198710;28;20037;-82
2023/05/06 06:03:03;;;;;;;0.70;0.70;;;;;;;13.10;67.10;101098.22;5198116;28;20053;-81
2023/05/06 06:05:54;;;;;;;0.82;0.82;;;;;;;13.15;66.81;101098.97;5201718;28;20171;-83
2023/05/06 06:08:45;;;;;;;3.50;2.50;;;;;;;13.19;66.96;101092.66;5194477;28;20118;-81
2023/05/06 06:11:36;;;;;;;1.42;1.35;;;;;;;13.23;66.41;101099.59;5189764;28;20053;-80
2023/05/06 06:14:26;;;;;;;1.55;1.45;;;;;;;13.27;66.92;101095.06;5184851;28;20049;-82
2023/05/06 06:17:17;;;;;;;0.93;0.93;;;;;;;13.28;67.82;101098.56;5207304;28;20582;-81
2023/05/06 06:20:08;;;;;;;1.15;1.10;;;;;;;13.35;67.26;101102.72;5190326;28;20049;-82
2023/05/06 06:23:00;;;;;;;1.17;1.17;;;;;;;13.33;69.10;101113.31;5191486;28;20573;-82
2023/05/06 06:25:50;;;;;;;2.38;2.20;;;;;;;13.37;68.70;101108.81;5197267;28;20025;-82
2023/05/06 06:28:43;;;;;;;1.88;1.38;;;;;;;13.42;68.29;101103.41;5201730;28;20115;-81
2023/05/06 06:31:34;;;;;;;2.15;2.03;;;;;;;13.49;67.59;101111.09;5209858;28;20531;-82
2023/05/06 06:34:25;;;;;;;1.27;0.98;;;;;;;13.57;67.40;101112.59;5188706;28;20607;-82
2023/05/06 06:37:15;;;;;;;1.35;1.27;;;;;;;13.61;67.83;101109.81;5199975;28;20052;-81
2023/05/06 06:40:07;;;;;;;1.40;1.30;;;;;;;13.60;68.32;101108.09;5188153;28;20038;-82
2023/05/06 06:42:58;;;;;;;1.08;0.98;;;;;;;13.71;68.45;101104.22;5193550;28;20040;-82
2023/05/06 06:45:49;;;;;;;0.90;0.88;;;;;;;13.67;70.02;101112.22;5213892;28;20051;-82
2023/05/06 06:48:40;;;;;;;1.05;0.90;;;;;;;13.74;68.34;101115.53;5187176;28;20056;-82
2023/05/06 06:51:31;;;;;;;2.50;1.42;;;;;;;13.82;68.37;101113.50;5206678;28;20025;-82
2023/05/06 06:54:22;;;;;;;1.13;1.05;;;;;;;13.76;70.23;101120.75;5204505;28;20037;-82
2023/05/06 06:57:13;;;;;;;1.42;1.33;;;;;;;13.84;70.03;101116.91;5185441;28;20033;-82
2023/05/06 07:00:04;;;;;;;1.10;1.10;;;;;;;13.87;69.21;101117.72;5186584;28;20371;-82
2023/05/06 07:02:55;;;;;;;0.85;0.82;;;;;;;13.94;69.35;101116.59;5210368;28;20276;-81
2023/05/06 07:05:45;;;;;;;0.30;0.30;;;;;;;13.99;68.85;101119.97;5206739;28;20026;-82
2023/05/06 07:08:36;;;;;;;1.40;1.30;;;;;;;14.01;69.39;101118.09;5196258;28;20527;-82
2023/05/06 07:11:27;;;;;;;1.05;0.95;;;;;;;14.03;69.53;101113.66;5199254;28;20026;-81
2023/05/06 07:14:19;;;;;;;0.63;0.63;;;;;;;14.07;69.44;101112.63;5200104;28;20025;-82
2023/05/06 07:17:10;;;;;;;0.28;0.28;;;;;;;14.16;67.97;101114.94;5190428;28;20465;-82
2023/05/06 07:20:01;;;;;;;0.20;0.20;;;;;;;14.13;72.17;101117.69;5184586;28;20041;-82
2023/05/06 07:22:52;;;;;;;0.55;0.55;;;;;;;14.15;70.35;101118.50;5185374;28;20543;-82
2023/05/06 07:25:42;;;;;;;0.40;0.40;;;;;;;14.24;71.69;101124.38;5210206;28;20030;-82
2023/05/06 07:28:33;;;;;;;0.65;0.65;;;;;;;14.30;70.43;101124.13;5196630;28;20122;-81
2023/05/06 07:31:24;;;;;;;0.63;0.63;;;;;;;14.38;69.92;101119.44;5207235;28;20159;-82
2023/05/06 07:34:14;;;;;;;0.68;0.68;;;;;;;14.43;69.06;101120.13;5189361;28;20069;-81
2023/05/06 07:37:07;;;;;;;0.40;0.40;;;;;;;14.43;71.19;101127.19;5189771;28;20025;-81
2023/05/06 07:39:57;;;;;;;0.50;0.50;;;;;;;14.44;73.40;101121.84;5194510;28;20052;-83
2023/05/06 07:42:48;;;;;;;0.60;0.60;;;;;;;14.41;72.88;101115.81;5201597;28;20045;-82
2023/05/06 07:45:39;;;;;;;0.30;0.30;;;;;;;14.64;70.62;101120.25;5203395;28;20117;-83
2023/05/06 07:48:34;;;;;;;0.30;0.30;;;;;;;14.52;71.91;101120.69;5201676;28;20041;-83
2023/05/06 07:51:25;;;;;;;0.30;0.30;;;;;;;14.45;73.43;101118.28;5193141;28;20029;-83
2023/05/06 07:54:17;;;;;;;0.20;0.20;;;;;;;14.46;72.34;101119.16;5201741;28;20038;-82
2023/05/06 07:57:08;;;;;;;1.17;1.13;;;;;;;14.56;71.51;101124.97;5191320;28;20025;-82
2023/05/06 07:59:58;;;;;;;0.68;0.60;;;;;;;14.59;73.69;101120.44;5193173;28;20039;-83
2023/05/06 08:02:49;;;;;;;0.73;0.73;;;;;;;14.68;72.02;101124.50;5201264;28;20479;-82
2023/05/06 08:05:40;;;;;;;0.55;0.55;;;;;;;14.68;72.23;101123.66;5204987;28;20040;-82
2023/05/06 08:08:34;;;;;;;0.20;0.20;;;;;;;14.72;72.26;101131.41;5200993;28;20802;-83
2023/05/06 08:11:25;;;;;;;0.30;0.30;;;;;;;14.75;73.07;101133.94;5184409;28;20041;-82
2023/05/06 08:14:16;;;;;;;0.68;0.68;;;;;;;14.84;70.97;101134.50;5178559;28;20120;-82
2023/05/06 08:17:07;;;;;;;0.40;0.40;;;;;;;14.84;72.40;101132.72;5194088;28;20085;-81
2023/05/06 08:19:57;;;;;;;0.60;0.60;;;;;;;14.88;72.37;101134.31;5195832;28;20451;-82
2023/05/06 08:22:48;;;;;;;0.45;0.45;;;;;;;14.92;71.54;101137.69;5183858;28;20056;-82
2023/05/06 08:25:46;;;;;;;0.20;0.20;;;;;;;14.99;71.31;101143.63;5181642;28;20027;-81
2023/05/06 08:28:37;;;;;;;0.40;0.40;;;;;;;15.02;72.25;101141.72;5183776;28;20044;-82
2023/05/06 08:31:28;;;;;;;0.22;0.22;;;;;;;15.08;71.80;101133.53;5181207;28;20033;-82
2023/05/06 08:34:20;;;;;;;0.25;0.25;;;;;;;15.18;74.32;101135.81;5195589;28;20051;-81
2023/05/06 08:37:10;;;;;;;0.43;0.43;;;;;;;15.25;72.12;101135.53;5188427;28;20088;-82
2023/05/06 08:40:04;;;;;;;0.40;0.40;;;;;;;15.24;73.01;101131.16;5191040;28;20034;-81
2023/05/06 08:42:56;;;;;;;0.45;0.45;;;;;;;15.29;73.37;101132.78;5181435;28;20045;-81
2023/05/06 08:45:48;;;;;;;4.55;1.05;;;;;;;15.35;71.14;101129.88;5197510;28;20040;-81
2023/05/06 08:48:41;;;;;;;0.80;0.80;;;;;;;15.43;71.21;101123.34;5200628;28;20069;-81
2023/05/06 08:51:33;;;;;;;0.38;0.38;;;;;;;15.39;70.63;101128.81;5187519;28;20036;-81
2023/05/06 08:54:28;;;;;;;0.40;0.40;;;;;;;15.41;70.38;101124.34;5196932;28;20037;-80
2023/05/06 08:57:20;;;;;;;0.30;0.30;;;;;;;15.50;70.48;101115.13;5185140;28;20029;-80
2023/05/06 09:00:14;;;;;;;0.50;0.50;;;;;;;15.68;70.25;101118.81;5185381;28;20038;-79
2023/05/06 09:03:05;;;;;;;0.50;0.50;;;;;;;15.57;70.26;101114.00;5188418;28;20156;-80
2023/05/06 09:05:57;;;;;;;0.20;0.20;;;;;;;15.73;70.44;101117.72;5181542;28;20112;-81
2023/05/06 09:08:47;;;;;;;0.20;0.20;;;;;;;15.70;70.36;101120.47;5181403;28;20037;-81
2023/05/06 09:11:38;;;;;;;0.30;0.30;;;;;;;15.71;70.00;101121.31;5198425;28;20420;-81
2023/05/06 09:14:29;;;;;;;0.30;0.30;;;;;;;15.76;70.28;101115.84;5190161;28;20053;-81
2023/05/06 09:17:26;;;;;;;0.40;0.40;;;;;;;15.87;69.58;101114.47;5209125;28;20033;-83
2023/05/06 09:20:17;;;;;;;0.20;0.20;;;;;;;15.94;69.45;101115.09;5203745;28;20030;-82
2023/05/06 09:23:10;;;;;;;0.40;0.40;;;;;;;15.87;68.47;101111.00;5200467;28;20050;-82
2023/05/06 09:26:00;;;;;;;0.30;0.30;;;;;;;15.97;69.12;101106.16;5202991;28;20476;-82
2023/05/06 09:28:51;;;;;;;0.40;0.40;;;;;;;16.04;69.17;101099.66;5182549;28;20080;-83
2023/05/06 09:31:44;;;;;;;0.40;0.40;;;;;;;16.12;68.21;101100.19;5178536;28;20026;-81
2023/05/06 09:34:35;;;;;;;0.20;0.20;;;;;;;16.05;67.85;101096.97;5179455;28;20037;-81
2023/05/06 09:37:26;;;;;;;0.30;0.30;;;;;;;16.14;67.08;101092.19;5182717;28;20401;-82
2023/05/06 09:40:16;;;;;;;0.43;0.43;;;;;;;16.18;66.33;101093.75;5196755;28;20254;-81
2023/05/06 09:43:08;;;;;;;0.20;0.20;;;;;;;16.29;66.07;101091.50;5183951;28;20042;-82
2023/05/06 09:46:04;;;;;;;0.32;0.32;;;;;;;16.28;67.11;101097.72;5183315;28;20644;-82
2023/05/06 09:48:56;;;;;;;0.30;0.30;;;;;;;16.32;67.06;101090.50;5185486;28;20034;-82
2023/05/06 09:51:50;;;;;;;0.47;0.47;;;;;;;16.43;67.01;101082.06;5183111;28;20079;-82
2023/05/06 09:54:41;;;;;;;0.30;0.30;;;;;;;16.51;66.26;101086.09;5183665;28;20034;-81
2023/05/06 09:57:32;;;;;;;1.13;0.65;;;;;;;16.50;65.81;101081.72;5199062;28;20037;-82
2023/05/06 10:00:27;;;;;;;0.30;0.30;;;;;;;16.58;65.19;101081.34;5183928;28;20049;-81
2023/05/06 10:03:19;;;;;;;0.22;0.22;;;;;;;16.58;63.35;101083.16;5182180;28;20037;-82
2023/05/06 10:06:11;;;;;;;0.20;0.20;;;;;;;16.71;63.79;101080.78;5185139;28;20040;-81
2023/05/06 10:09:02;;;;;;;0.20;0.20;;;;;;;16.72;63.94;101083.34;5192474;28;20044;-81
2023/05/06 10:11:53;;;;;;;0.40;0.40;;;;;;;16.78;63.93;101088.34;5188915;28;20034;-82
2023/05/06 10:14:43;;;;;;;0.20;0.20;;;;;;;16.91;64.07;101085.13;5185848;28;20048;-81
2023/05/06 10:17:37;;;;;;;0.20;0.20;;;;;;;16.94;65.23;101077.91;5174470;28;20117;-83
2023/05/06 10:20:30;;;;;;;0.20;0.20;;;;;;;17.14;65.02;101084.06;5185480;28;20109;-83
2023/05/06 10:23:24;;;;;;;0.20;0.20;;;;;;;17.23;64.62;101083.56;5191099;28;20042;-81
2023/05/06 10:26:16;;;;;;;0.32;0.32;;;;;;;17.33;63.29;101075.16;5183844;28;20045;-81
2023/05/06 10:29:09;;;;;;;1.55;0.43;;;;;;;17.33;63.22;101075.16;5179742;28;20560;-81
2023/05/06 10:32:02;;;;;;;0.47;0.47;;;;;;;17.36;63.25;101067.91;5182225;28;20024;-82
2023/05/06 10:34:55;;;;;;;0.40;0.40;;;;;;;17.42;63.05;101072.94;5162692;28;20514;-82
2023/05/06 10:37:49;;;;;;;0.30;0.30;;;;;;;17.57;62.59;101067.78;5181908;28;20034;-81
2023/05/06 10:40:41;;;;;;;2.60;1.15;;;;;;;17.54;62.25;101067.94;5184041;28;20033;-82
2023/05/06 10:43:33;;;;;;;3.88;0.43;;;;;;;17.56;61.95;101066.06;5186313;28;20073;-82
2023/05/06 10:46:27;;;;;;;0.50;0.50;;;;;;;17.73;62.28;101060.75;5189050;28;20583;-82
2023/05/06 10:49:19;;;;;;;0.77;0.77;;;;;;;17.76;60.04;101059.72;5181913;28;20154;-81
2023/05/06 10:52:13;;;;;;;0.55;0.43;;;;;;;17.80;59.04;101056.00;5185080;28;20090;-82
2023/05/06 10:55:24;;;;;;;0.70;0.70;;;;;;;17.90;60.12;101049.25;5214813;28;20037;-81
2023/05/06 10:58:17;;;;;;;1.05;0.65;;;;;;;17.98;61.24;101051.53;5205476;28;20038;-82
2023/05/06 11:01:09;;;;;;;0.30;0.30;;;;;;;18.10;62.06;101050.03;5199970;28;20054;-82
2023/05/06 11:04:08;;;;;;;0.20;0.20;;;;;;;18.28;59.44;101048.16;5186028;28;20105;-82
2023/05/06 11:07:13;;;;;;;0.60;0.60;;;;;;;18.34;57.77;101047.84;5190375;28;20040;-84
2023/05/06 11:10:06;;;;;;;0.20;0.20;;;;;;;18.43;57.75;101043.81;5189960;28;20602;-81
2023/05/06 11:12:56;;;;;;;0.20;0.20;;;;;;;18.50;59.48;101039.03;5207061;23;20161;-87
2023/05/06 11:15:50;;;;;;;0.20;0.20;;;;;;;18.56;58.75;101036.88;5193694;28;20033;-87
2023/05/06 11:18:42;;;;;;;0.40;0.40;;;;;;;18.73;56.41;101024.44;5185411;28;20071;-85
2023/05/06 11:21:33;;;;;;;0.57;0.57;;;;;;;18.80;56.08;101028.44;5203906;28;20037;-86
2023/05/06 11:24:37;;;;;;;0.38;0.38;;;;;;;18.84;58.28;101021.19;5190616;28;20072;-87
2023/05/06 11:27:28;;;;;;;0.40;0.40;;;;;;;19.00;56.40;101018.53;5206661;28;20037;-87
2023/05/06 11:30:19;;;;;;;0.30;0.30;;;;;;;19.01;58.57;101010.44;5188725;28;20453;-86
2023/05/06 11:33:17;;;;;;;0.20;0.20;;;;;;;19.11;57.83;101013.44;5199245;28;20044;-87
2023/05/06 11:36:13;;;;;;;0.20;0.20;;;;;;;19.37;56.50;101019.03;5191007;28;20764;-87
2023/05/06 11:39:07;;;;;;;0.77;0.47;;;;;;;19.37;57.62;101016.38;5200189;28;20041;-87
2023/05/06 11:41:58;;;;;;;;;;;;;;;19.52;59.13;101008.41;5187064;28;20095;-86
2023/05/06 11:44:49;;;;;;;0.30;0.30;;;;;;;19.67;58.40;101010.13;5187706;28;19927;-87
2023/05/06 11:47:43;;;;;;;0.20;0.20;;;;;;;19.73;58.27;101015.09;5188689;28;20116;-88
2023/05/06 11:50:33;;;;;;;;;;;;;;;19.81;57.30;101007.47;5187204;28;20010;-86
2023/05/06 11:53:24;;;;;;;0.20;0.20;;;;;;;19.79;54.97;100998.72;5190802;28;19925;-86
2023/05/06 11:56:15;;;;;;;0.20;0.20;;;;;;;20.06;52.15;100994.50;5206556;28;20059;-86
2023/05/06 11:59:06;;;;;;;0.20;0.20;;;;;;;20.07;53.04;101001.53;5214496;28;20037;-85
2023/05/06 12:01:58;;;;;;;0.65;0.35;;;;;;;19.89;51.93;100998.19;5200955;28;20041;-88
2023/05/06 12:04:50;;;;;;;0.30;0.30;;;;;;;19.89;51.51;100998.19;5189796;28;20072;-87
2023/05/06 12:07:43;;;;;;;0.40;0.40;;;;;;;20.00;53.89;101000.22;5221164;28;20053;-86
2023/05/06 12:10:35;;;;;;;;;;;;;;;20.14;50.48;101002.84;5219448;28;20063;-86
2023/05/06 12:13:26;;;;;;;0.20;0.20;;;;;;;20.19;51.76;100997.25;5227798;28;20019;-85
2023/05/06 12:16:17;;;;;;;0.32;0.30;;;;;;;20.24;51.19;101000.47;5231040;28;20032;-86
2023/05/06 12:19:08;;;;;;;0.10;0.10;;;;;;;20.36;52.49;101002.34;5205879;28;20409;-87
2023/05/06 12:22:19;;;;;;;0.20;0.20;;;;;;;20.54;52.99;100999.44;5188546;28;20083;-86
2023/05/06 12:25:14;;;;;;;2.03;0.43;;;;;;;20.74;52.76;100993.69;5191660;28;20061;-87
2023/05/06 12:28:14;;;;;;;0.22;0.22;;;;;;;21.15;48.34;100999.91;5195928;28;20734;-86
2023/05/06 12:31:24;;;;;;;0.20;0.20;;;;;;;21.07;48.70;100995.09;5189465;28;20760;-86
2023/05/06 12:34:17;;;;;;;0.20;0.20;;;;;;;21.22;49.04;100995.00;5191041;28;20068;-87
2023/05/06 12:37:08;;;;;;;0.20;0.20;;;;;;;21.35;48.78;100992.34;5195291;28;20032;-87
2023/05/06 12:39:58;;;;;;;0.20;0.20;;;;;;;21.20;48.05;101003.13;5184315;28;20088;-86
2023/05/06 12:42:56;;;;;;;0.25;0.25;;;;;;;21.33;47.62;100996.94;5190345;28;20074;-86
2023/05/06 12:46:03;;;;;;;0.20;0.20;;;;;;;21.34;48.15;100994.19;5195246;28;20041;-86
2023/05/06 12:49:01;;;;;;;0.10;0.10;;;;;;;21.38;47.65;100990.31;5203630;28;20064;-87
2023/05/06 12:52:05;;;;;;;2.38;0.30;;;;;;;21.51;50.42;100989.50;5200981;28;20037;-87
2023/05/06 12:54:59;;;;;;;0.20;0.20;;;;;;;21.54;50.04;100989.25;5198576;28;20068;-86
2023/05/06 12:57:53;;;;;;;0.20;0.20;;;;;;;21.56;50.97;100981.16;5207695;28;20038;-87
2023/05/06 13:00:44;;;;;;;0.47;0.47;;;;;;;21.63;50.17;100985.16;5210799;28;20028;-86
2023/05/06 13:03:37;;;;;;;3.67;1.35;;;;;;;21.62;49.36;100986.94;5210984;28;20040;-86
2023/05/06 13:06:28;;;;;;;2.17;1.55;;;;;;;21.68;50.32;100991.00;5218009;28;20041;-84
2023/05/06 13:09:19;;;;;;;0.20;0.20;;;;;;;21.65;49.62;100986.75;5208600;28;20040;-86
2023/05/06 13:12:09;;;;;;;0.10;0.10;;;;;;;21.64;49.59;100984.19;5187677;28;20064;-87
2023/05/06 13:15:00;;;;;;;0.20;0.20;;;;;;;21.67;48.65;100990.16;5188995;28;20041;-87
2023/05/06 13:17:51;;;;;;;0.20;0.20;;;;;;;21.59;47.56;100992.53;5189516;28;20116;-87
2023/05/06 13:20:42;;;;;;;0.20;0.20;;;;;;;21.63;48.12;100996.66;5186815;28;20447;-88
2023/05/06 13:23:35;;;;;;;0.20;0.20;;;;;;;21.57;49.58;100999.75;5183983;28;20053;-86